Latest Weather Observations for Trepell

IDQ60801

Issued at 6:32 pm EST Thursday 30 March 2017 (issued every 30 minutes, with the page automatically refreshed every 10 minutes)

About weather observations | Map of weather stations | Latest weather observations for QLD | Other Formats
Station Details ID: 037036 Name: TREPELL AIRPORT Lat: -21.84 Lon: 140.89 Height: 266.2 m
Data from the previous 72 hours. | See also: Recent months at Trepell
Date/Time
EST
Temp
°C
App
Temp
°C
Dew
Point
°C
Rel
Hum
%
Delta-T
°C
Wind Press
QNH
hPa
Press
MSL
hPa
Rain since
9am
mm
Dir  Spd
km/h
Gust
km/h
Spd
kts
Gust
kts
30/06:30pm 31.3 23.6 3.4 17 14.4 SSW 33 44 18 24 1012.0 1010.1 0.0
30/06:00pm 32.6 25.5 3.5 16 15.2 S 30 43 16 23 1011.5 1009.7 0.0
30/05:30pm 33.3 25.8 3.2 15 15.7 S 32 43 17 23 1011.1 1009.3 0.0
30/05:00pm 34.1 27.2 2.8 14 16.3 SSW 28 41 15 22 1010.9 1009.1 0.0
30/04:30pm 34.6 27.3 2.2 13 16.7 SSW 30 43 16 23 1010.6 1008.8 0.0
30/04:00pm 34.9 27.0 2.4 13 16.9 S 33 46 18 25 1010.7 1008.9 0.0
30/03:30pm 34.8 26.9 1.2 12 17.1 S 32 44 17 24 1010.8 1009.0 0.0
30/03:00pm 35.2 27.4 1.5 12 17.3 SSW 32 50 17 27 1010.8 1009.0 0.0
30/02:41pm 35.3 27.9 1.6 12 17.3 SSW 30 50 16 27 1011.0 1009.2 0.0
30/02:30pm 35.2 27.4 2.6 13 17.0 S 33 46 18 25 1011.0 1009.2 0.0
30/02:00pm 35.1 27.3 1.5 12 17.2 S 32 44 17 24 1011.3 1009.5 0.0
30/01:30pm 34.6 26.7 1.1 12 17.0 S 32 52 17 28 1011.5 1009.7 0.0
30/01:29pm 34.8 26.9 1.2 12 17.1 S 32 52 17 28 1011.4 1009.6 0.0
30/01:00pm 34.6 26.1 1.1 12 17.0 SSW 35 46 19 25 1011.8 1010.0 0.0
30/12:30pm 33.7 25.7 1.5 13 16.4 S 33 46 18 25 1012.4 1010.5 0.0
30/12:00pm 33.7 26.2 1.5 13 16.4 S 30 44 16 24 1013.0 1011.1 0.0
30/11:30am 32.5 24.3 0.6 13 15.8 SSW 33 48 18 26 1013.5 1011.7 0.0
30/11:06am 31.8 23.7 1.0 14 15.3 S 33 52 18 28 1013.7 1011.9 0.0
30/11:00am 31.7 23.4 -0.1 13 15.5 S 33 44 18 24 1013.8 1012.0 0.0
30/10:30am 31.1 23.1 0.5 14 15.0 S 32 44 17 24 1013.9 1012.1 0.0
30/10:00am 29.9 21.3 0.5 15 14.3 SSW 35 46 19 25 1014.1 1012.3 0.0
30/09:30am 29.4 20.9 1.0 16 13.9 S 35 44 19 24 1014.3 1012.5 0.0
30/09:00am 28.7 21.1 0.4 16 13.7 SSW 30 41 16 22 1014.1 1012.3 0.0
30/08:30am 27.8 19.7 -0.3 16 13.3 SSW 32 43 17 23 1013.9 1012.1 0.0
30/08:00am 27.3 20.7 -0.7 16 13.1 SSW 24 33 13 18 1013.6 1011.8 0.0
30/07:30am 26.7 20.7 -1.2 16 12.9 SSW 20 28 11 15 1013.0 1011.1 0.0
30/07:00am 26.7 20.4 -1.2 16 12.9 SW 22 32 12 17 1012.5 1010.6 0.0
30/06:30am 26.8 20.7 -2.0 15 13.1 SW 20 24 11 13 1012.0 1010.1 0.0
30/06:00am 27.3 21.5 -1.6 15 13.3 SSW 19 24 10 13 1011.4 1009.6 0.0
30/05:30am 27.5 22.2 -0.5 16 13.2 SW 17 22 9 12 1011.0 1009.2 0.0
30/05:00am 27.5 23.3 1.8 19 12.6 SW 13 17 7 9 1010.4 1008.6 0.0
30/04:30am 28.4 23.2 2.6 19 12.9 SSW 19 26 10 14 1010.0 1008.2 0.0
30/04:00am 29.2 23.9 3.2 19 13.2 SSW 20 28 11 15 1009.5 1007.6 0.0
30/03:30am 30.2 24.6 3.3 18 13.8 SSW 22 30 12 16 1009.1 1007.2 0.0
30/03:00am 30.7 24.8 3.7 18 14.0 SSW 24 30 13 16 1008.8 1006.9 0.0
30/02:30am 31.1 25.9 5.5 20 13.7 SSW 22 32 12 17 1008.9 1007.0 0.0
30/02:00am 31.8 27.7 8.7 24 13.1 SSW 20 26 11 14 1009.1 1007.2 0.0
30/01:30am 32.2 27.8 9.1 24 13.2 SSW 22 30 12 16 1008.6 1006.7 0.0
30/01:00am 32.6 28.2 8.8 23 13.5 SSW 22 33 12 18 1008.2 1006.3 0.0
30/12:30am 32.5 28.6 9.3 24 13.3 SSW 20 30 11 16 1007.8 1006.0 0.0
30/12:00am 31.8 28.1 9.3 25 12.9 SW 19 24 10 13 1007.7 1005.9 0.0
 
Date/Time
EST
Temp
°C
App
Temp
°C
Dew
Point
°C
Rel
Hum
%
Delta-T
°C
Wind Press
QNH
hPa
Press
MSL
hPa
Rain since
9am
mm
Dir  Spd
km/h
Gust
km/h
Spd
kts
Gust
kts
29/11:30pm 30.8 28.5 9.1 26 12.3 SW 11 13 6 7 1007.4 1005.6 0.0
29/11:00pm 30.9 28.3 9.2 26 12.3 SW 13 13 7 7 1007.4 1005.6 0.0
29/10:30pm 31.0 29.2 9.3 26 12.3 SW 9 11 5 6 1007.5 1005.7 0.0
29/10:00pm 31.7 29.9 9.3 25 12.8 SW 9 11 5 6 1007.3 1005.5 0.0
29/09:30pm 32.0 30.1 8.9 24 13.1 SW 9 13 5 7 1007.3 1005.5 0.0
29/09:00pm 32.5 31.0 9.3 24 13.3 SSW 7 9 4 5 1007.0 1005.2 0.0
29/08:30pm 33.4 31.4 8.8 22 14.0 SSW 9 13 5 7 1006.7 1004.9 0.0
29/08:00pm 34.7 32.5 9.2 21 14.7 SSW 11 15 6 8 1006.3 1004.4 0.0
29/07:30pm 35.8 33.2 9.3 20 15.4 S 13 15 7 8 1005.8 1003.9 0.0
29/07:00pm 36.8 33.5 9.4 19 16.0 S 17 22 9 12 1005.3 1003.4 0.0
29/06:30pm 37.5 32.8 9.2 18 16.5 S 24 39 13 21 1004.9 1003.0 0.0
29/06:00pm 38.3 33.5 9.0 17 17.2 S 24 33 13 18 1004.7 1002.8 0.0
29/05:30pm 39.3 33.7 8.9 16 17.8 S 28 37 15 20 1004.6 1002.7 0.0
29/05:12pm 39.7 34.3 8.2 15 18.3 S 26 46 14 25 1004.4 1002.5 0.0
29/05:00pm 40.1 35.8 9.5 16 18.2 SSW 22 33 12 18 1004.3 1002.4 0.0
29/04:30pm 39.6 34.9 9.1 16 17.9 S 24 41 13 22 1004.2 1002.3 0.0
29/04:00pm 39.8 35.8 9.2 16 18.1 S 20 32 11 17 1004.2 1002.3 0.0
29/03:30pm 40.9 36.0 10.1 16 18.5 SSW 26 39 14 21 1004.3 1002.4 0.0
29/03:00pm 40.4 36.8 10.6 17 18.0 S 20 32 11 17 1004.5 1002.6 0.0
29/02:30pm 39.8 36.1 10.2 17 17.7 S 20 32 11 17 1004.8 1002.9 0.0
29/02:00pm 38.4 34.5 10.7 19 16.6 S 22 37 12 20 1005.2 1003.3 0.0
29/01:30pm 38.5 34.2 10.8 19 16.6 SSE 24 35 13 19 1005.6 1003.7 0.0
29/01:00pm 38.0 36.2 13.3 23 15.4 S 15 28 8 15 1006.1 1004.2 0.0
29/12:30pm 36.9 34.2 13.0 24 14.7 S 19 28 10 15 1006.7 1004.9 0.0
29/12:00pm 37.1 36.0 14.4 26 14.3 S 13 22 7 12 1007.2 1005.4 0.0
29/11:30am 36.2 34.7 14.2 26 13.7 SE 15 26 8 14 1007.9 1006.1 0.0
29/11:00am 34.9 33.4 14.2 28 12.9 SSE 15 24 8 13 1008.4 1006.5 0.0
29/10:30am 34.0 33.9 15.0 32 11.9 S 9 15 5 8 1008.8 1006.9 0.0
29/10:00am 33.5 33.4 15.0 32 11.6 SE 9 15 5 8 1009.0 1007.1 0.0
29/09:30am 32.2 31.6 13.4 32 11.4 SE 9 15 5 8 1009.0 1007.1 0.0
29/09:00am 31.5 31.0 12.8 32 11.3 SSW 7 9 4 5 1009.1 1007.2 0.0
29/08:30am 30.4 29.2 10.4 29 11.5 SSW 7 9 4 5 1009.0 1007.1 0.0
29/08:00am 28.9 27.3 10.1 31 10.7 SSW 9 11 5 6 1008.7 1006.8 0.0
29/07:30am 26.5 24.8 9.8 35 9.4 SW 9 11 5 6 1008.4 1006.5 0.0
29/07:00am 23.8 22.2 10.1 42 7.6 SSW 9 13 5 7 1008.2 1006.3 0.0
29/06:30am 24.6 23.4 9.7 39 8.3 NNW 6 6 3 3 1007.3 1005.5 0.0
29/06:00am 25.5 24.2 10.1 38 8.7 NNE 7 7 4 4 1007.1 1005.3 0.0
29/05:30am 23.9 22.2 8.3 37 8.4 N 7 9 4 5 1006.8 1005.0 0.0
29/05:00am 26.6 24.7 9.0 33 9.8 NW 9 9 5 5 1006.5 1004.6 0.0
29/04:30am 26.3 24.4 9.2 34 9.5 NW 9 9 5 5 1006.2 1004.3 0.0
29/04:00am 27.1 25.3 9.5 33 9.9 NW 9 11 5 6 1006.0 1004.1 0.0
29/03:30am 26.5 24.2 8.9 33 9.7 N 11 11 6 6 1006.0 1004.1 0.0
29/03:00am 27.3 27.0 8.7 31 10.3 CALM 0 0 0 0 1006.0 1004.1 0.0
29/02:30am 27.7 27.5 9.0 31 10.4 CALM 0 0 0 0 1006.2 1004.3 0.0
29/02:00am 27.4 27.1 8.8 31 10.3 CALM 0 0 0 0 1006.3 1004.4 0.0
29/01:30am 27.5 26.0 9.3 32 10.2 ENE 7 7 4 4 1006.6 1004.8 0.0
29/01:00am 27.7 27.0 8.6 30 10.6 NE 2 9 1 5 1006.7 1004.9 0.0
29/12:30am 28.2 27.6 9.0 30 10.7 ENE 2 6 1 3 1006.8 1005.0 0.0
29/12:00am 28.2 26.7 9.0 30 10.7 E 7 9 4 5 1006.8 1005.0 0.0
 
Date/Time
EST
Temp
°C
App
Temp
°C
Dew
Point
°C
Rel
Hum
%
Delta-T
°C
Wind Press
QNH
hPa
Press
MSL
hPa
Rain since
9am
mm
Dir  Spd
km/h
Gust
km/h
Spd
kts
Gust
kts
28/11:30pm 29.8 27.8 8.8 27 11.8 SSW 9 11 5 6 1006.5 1004.6 0.0
28/11:00pm 30.4 28.4 8.7 26 12.2 SSW 9 11 5 6 1006.8 1005.0 0.0
28/10:30pm 30.3 28.3 8.7 26 12.1 SSW 9 11 5 6 1007.0 1005.2 0.0
28/10:00pm 31.6 29.7 9.2 25 12.8 S 9 11 5 6 1007.2 1005.4 0.0
28/09:30pm 32.1 29.6 9.6 25 12.9 SSE 13 15 7 8 1007.2 1005.4 0.0
28/09:00pm 33.5 30.8 10.2 24 13.6 SE 15 19 8 10 1006.9 1005.1 0.0
28/08:30pm 33.4 31.4 8.8 22 14.0 S 9 11 5 6 1006.5 1004.6 0.0
28/08:00pm 34.1 31.3 8.7 21 14.5 SSE 13 15 7 8 1006.3 1004.4 0.0
28/07:30pm 35.4 32.1 9.7 21 15.0 SSE 17 22 9 12 1006.1 1004.2 0.0
28/07:00pm 36.7 31.8 8.5 18 16.3 SSE 24 32 13 17 1005.8 1003.9 0.0
28/06:30pm 37.5 32.2 8.3 17 16.8 SE 26 35 14 19 1005.6 1003.7 0.0
28/06:00pm 38.4 32.9 9.0 17 17.2 SE 28 39 15 21 1005.3 1003.4 0.0
28/05:30pm 39.1 32.5 8.7 16 17.7 SE 33 44 18 24 1005.2 1003.3 0.0
28/05:00pm 39.6 33.1 8.1 15 18.3 SE 32 43 17 23 1005.0 1003.1 0.0
28/04:46pm 39.8 33.7 8.3 15 18.3 SE 30 48 16 26 1005.0 1003.1 0.0
28/04:30pm 40.0 33.8 9.4 16 18.1 SSE 32 48 17 26 1005.1 1003.2 0.0
28/04:04pm 40.2 34.8 9.6 16 18.2 SSE 28 46 15 25 1005.3 1003.4 0.0
28/04:00pm 40.6 35.7 9.9 16 18.4 SSE 26 46 14 25 1005.4 1003.5 0.0
28/03:56pm 40.2 34.8 9.6 16 18.2 SE 28 48 15 26 1005.3 1003.4 0.0
28/03:46pm 40.0 33.6 9.4 16 18.1 SSE 33 48 18 26 1005.5 1003.6 0.0
28/03:30pm 40.5 34.4 9.8 16 18.3 SSE 32 50 17 27 1005.6 1003.7 0.0
28/03:13pm 40.3 34.2 9.6 16 18.2 SE 32 48 17 26 1005.7 1003.8 0.0
28/03:00pm 39.8 31.5 10.2 17 17.7 SE 44 59 24 32 1005.7 1003.8 0.0
28/02:36pm 40.0 32.6 8.5 15 18.4 SE 37 56 20 30 1006.0 1004.1 0.0
28/02:30pm 40.9 34.2 8.1 14 19.1 SSE 33 46 18 25 1006.0 1004.1 0.0
28/02:00pm 39.7 32.9 9.2 16 18.0 SE 35 50 19 27 1006.4 1004.5 0.0
28/01:45pm 40.4 34.4 8.8 15 18.6 SSE 30 50 16 27 1006.7 1004.9 0.0
28/01:30pm 39.1 32.4 9.6 17 17.4 SE 35 50 19 27 1006.9 1005.1 0.0
28/01:23pm 39.8 33.8 10.2 17 17.7 SE 32 50 17 27 1006.9 1005.1 0.0
28/01:00pm 39.4 34.3 10.7 18 17.3 SE 28 39 15 21 1007.5 1005.7 0.0
28/12:30pm 38.6 32.6 10.0 18 17.0 SE 32 41 17 22 1008.1 1006.2 0.0
28/12:00pm 38.7 34.8 10.9 19 16.7 SE 22 32 12 17 1008.6 1006.7 0.0
28/11:30am 39.4 36.9 12.3 20 16.7 SE 17 28 9 15 1009.0 1007.1 0.0
28/11:00am 37.2 35.3 11.9 22 15.4 SE 13 26 7 14 1009.4 1007.5 0.0
28/10:30am 36.7 35.1 12.8 24 14.7 ESE 13 17 7 9 1009.9 1008.0 0.0
28/10:00am 35.6 34.1 11.9 24 14.3 E 11 17 6 9 1010.1 1008.3 0.0
28/09:30am 34.3 33.0 12.6 27 13.1 NE 11 15 6 8 1010.1 1008.3 0.0
28/09:00am 33.0 31.6 12.1 28 12.5 ENE 11 15 6 8 1009.9 1008.0 0.0
28/08:30am 31.5 31.5 12.3 31 11.5 NE 4 7 2 4 1009.9 1008.0 0.0
28/08:00am 28.8 29.0 11.8 35 10.0 SW 2 6 1 3 1009.6 1007.7 0.0
28/07:30am 25.9 26.0 11.6 40 8.2 SSW 2 6 1 3 1009.5 1007.6 0.0
28/07:00am 24.5 23.9 11.8 45 7.3 SW 6 7 3 4 1009.2 1007.3 0.0
28/06:30am 25.1 25.5 11.3 42 7.9 CALM 0 0 0 0 1009.0 1007.1 0.0
28/06:00am 25.8 26.3 11.6 41 8.2 CALM 0 0 0 0 1008.5 1006.6 0.0
28/05:30am 26.2 25.5 11.9 41 8.3 WNW 7 9 4 5 1008.4 1006.5 0.0
28/05:00am 26.5 25.5 11.0 38 8.9 NW 7 9 4 5 1008.1 1006.2 0.0
28/04:30am 26.0 24.9 10.6 38 8.7 NNW 7 9 4 5 1008.1 1006.2 0.0
28/04:00am 27.1 26.2 10.8 36 9.3 WNW 6 7 3 4 1007.8 1006.0 0.0
28/03:30am 27.4 26.0 11.0 36 9.4 W 9 9 5 5 1007.9 1006.1 0.0
28/03:00am 27.4 25.9 10.6 35 9.6 WSW 9 11 5 6 1008.1 1006.2 0.0
28/02:30am 27.6 26.2 10.8 35 9.6 WSW 9 11 5 6 1008.4 1006.5 0.0
28/02:00am 27.7 26.7 10.9 35 9.7 WSW 7 9 4 5 1008.6 1006.7 0.0
28/01:30am 27.9 28.2 11.0 35 9.7 CALM 0 0 0 0 1008.7 1006.8 0.0
28/01:00am 28.7 29.0 10.8 33 10.3 CALM 0 0 0 0 1009.0 1007.1 0.0
28/12:30am 28.6 28.9 10.8 33 10.2 CALM 0 0 0 0 1009.2 1007.3 0.0
28/12:00am 30.0 30.3 11.0 31 11.1 CALM 0 0 0 0 1009.3 1007.4 0.0
 
Date/Time
EST
Temp
°C
App
Temp
°C
Dew
Point
°C
Rel
Hum
%
Delta-T
°C
Wind Press
QNH
hPa
Press
MSL
hPa
Rain since
9am
mm
Dir  Spd
km/h
Gust
km/h
Spd
kts
Gust
kts
27/11:30pm 30.3 30.6 10.8 30 11.3 CALM 0 0 0 0 1009.3 1007.4 0.0
27/11:00pm 30.3 29.8 10.8 30 11.3 E 4 6 2 3 1009.5 1007.6 0.0
27/10:30pm 31.2 30.5 12.1 31 11.3 ESE 7 9 4 5 1009.6 1007.7 0.0
27/10:00pm 31.8 30.4 11.0 28 12.2 ESE 9 11 5 6 1009.6 1007.7 0.0
27/09:30pm 32.3 31.2 12.0 29 12.1 ESE 9 13 5 7 1009.4 1007.5 0.0
27/09:00pm 33.1 31.5 11.6 27 12.8 ESE 11 13 6 7 1009.2 1007.3 0.0
27/08:30pm 33.8 31.7 11.0 25 13.5 SE 13 15 7 8 1009.1 1007.2 0.0
27/08:00pm 34.9 32.1 11.3 24 14.1 SE 17 20 9 11 1008.8 1006.9 0.0
27/07:30pm 35.1 32.7 11.5 24 14.1 SE 15 19 8 10 1008.5 1006.6 0.0
27/07:00pm 36.2 33.3 11.1 22 15.0 SE 17 24 9 13 1008.2 1006.3 0.0

Other Formats:

Comma delimited format used in spreadsheet applications
http://www.bom.gov.au/fwo/IDQ60801/IDQ60801.94338.axf

JavaScript Object Notation format (JSON) in row-major order
http://www.bom.gov.au/fwo/IDQ60801/IDQ60801.94338.json